Time;durP1;ratioP1;P1;durP2;ratioP2;P2;SDS_P1;SDS_P2;PMS_P1;PMS_P2;Temp;Humidity;BMP_temperature;BMP_pressure;BME280_temperature;BME280_humidity;BME280_pressure;Samples;Min_cycle;Max_cycle;Signal;HPM_P1;HPM_P2
2022/03/31 00:01:07;;;;;;;39.13;25.95;;;;;;;7.35;100.00;100104.17;1690367;84;21608;-79
2022/03/31 00:03:36;;;;;;;40.73;26.42;;;;;;;7.34;100.00;100111.58;1673602;84;21113;-88
2022/03/31 00:06:03;;;;;;;33.33;25.15;;;;;;;7.35;100.00;100108.91;1663471;86;21082;-83
2022/03/31 00:08:31;;;;;;;37.13;24.55;;;;;;;7.38;100.00;100113.03;1663099;86;21085;-82
2022/03/31 00:10:59;;;;;;;38.63;26.68;;;;;;;7.39;100.00;100105.15;1663382;84;21066;-82
2022/03/31 00:13:29;;;;;;;36.08;24.82;;;;;;;7.40;100.00;100103.41;1663410;86;21078;-83
2022/03/31 00:15:58;;;;;;;37.70;24.60;;;;;;;7.38;100.00;100109.16;1663043;86;21042;-81
2022/03/31 00:18:28;;;;;;;40.10;24.98;;;;;;;7.36;100.00;100117.48;1663758;84;21026;-81
2022/03/31 00:20:55;;;;;;;33.25;23.95;;;;;;;7.31;100.00;100112.63;1663266;86;21082;-80
2022/03/31 00:32:32;;;;;;;35.38;23.83;;;;;;;7.11;100.00;100115.30;1691533;84;21122;-81
2022/03/31 00:34:59;;;;;;;32.50;24.00;;;;;;;7.02;100.00;100104.27;1691222;84;21067;-83
2022/03/31 00:37:45;;;;;;;34.55;23.70;;;;;;;6.95;100.00;100107.77;1691349;84;21098;-82
2022/03/31 00:40:15;;;;;;;34.75;23.02;;;;;;;6.91;100.00;100108.44;1691229;84;21182;-80
2022/03/31 00:42:49;;;;;;;36.25;22.45;;;;;;;6.88;100.00;100109.12;1691528;84;21063;-80
2022/03/31 00:45:29;;;;;;;36.00;23.02;;;;;;;6.86;100.00;100112.27;1691067;84;21796;-81
2022/03/31 00:47:58;;;;;;;39.65;24.77;;;;;;;6.83;100.00;100112.46;1691577;84;21051;-80
2022/03/31 00:50:28;;;;;;;39.15;22.70;;;;;;;6.77;100.00;100120.20;1691440;84;21067;-79
2022/03/31 00:52:55;;;;;;;36.28;22.73;;;;;;;6.73;100.00;100123.91;1691285;84;22059;-88
2022/03/31 00:55:26;;;;;;;35.03;22.07;;;;;;;6.67;100.00;100119.96;1691305;84;21608;-85
2022/03/31 00:57:55;;;;;;;47.55;22.52;;;;;;;6.66;100.00;100118.30;1691361;84;21138;-83
2022/03/31 01:00:24;;;;;;;36.15;21.73;;;;;;;6.63;100.00;100116.75;1691089;84;21051;-80
2022/03/31 01:02:52;;;;;;;30.50;21.57;;;;;;;6.66;100.00;100115.71;1691562;84;21075;-81
2022/03/31 01:05:20;;;;;;;35.00;21.90;;;;;;;6.68;100.00;100119.03;1691391;84;21169;-80
2022/03/31 01:07:49;;;;;;;28.73;21.02;;;;;;;6.68;100.00;100121.63;1691465;84;21075;-80
2022/03/31 01:10:16;;;;;;;31.57;21.15;;;;;;;6.68;100.00;100129.38;1691109;84;20995;-83
2022/03/31 01:12:46;;;;;;;30.23;21.02;;;;;;;6.68;100.00;100130.68;1670468;84;21020;-80
2022/03/31 01:15:20;;;;;;;29.63;21.23;;;;;;;6.68;100.00;100133.74;1663313;86;21062;-81
2022/03/31 01:17:49;;;;;;;38.10;23.27;;;;;;;6.63;100.00;100142.63;1663741;86;21102;-88
2022/03/31 01:20:22;;;;;;;39.40;23.42;;;;;;;6.55;100.00;100143.59;1663401;86;21058;-82
2022/03/31 01:22:51;;;;;;;35.90;23.73;;;;;;;6.50;100.00;100149.98;1663476;86;21065;-81
2022/03/31 01:25:19;;;;;;;32.60;21.57;;;;;;;6.45;100.00;100155.02;1663259;86;21074;-80
2022/03/31 01:27:48;;;;;;;42.80;22.95;;;;;;;6.40;100.00;100157.53;1663010;86;21108;-81
2022/03/31 01:30:24;;;;;;;28.23;21.52;;;;;;;6.35;100.00;100157.02;1663207;86;21030;-80
2022/03/31 01:32:53;;;;;;;33.95;22.37;;;;;;;6.31;100.00;100155.91;1662737;86;21104;-82
2022/03/31 01:35:20;;;;;;;29.57;22.45;;;;;;;6.30;100.00;100156.02;1663320;86;21125;-80
2022/03/31 01:37:48;;;;;;;35.10;21.70;;;;;;;6.30;100.00;100157.30;1663091;86;21563;-80
2022/03/31 01:40:16;;;;;;;31.37;21.12;;;;;;;6.26;100.00;100159.27;1663201;86;21124;-83
2022/03/31 01:42:45;;;;;;;32.03;21.23;;;;;;;6.26;100.00;100161.84;1663679;86;21099;-82
2022/03/31 01:45:17;;;;;;;33.23;21.62;;;;;;;6.26;100.00;100157.97;1677586;84;21020;-81
2022/03/31 01:47:46;;;;;;;35.85;21.30;;;;;;;6.26;100.00;100151.95;1696629;84;21537;-81
2022/03/31 01:50:15;;;;;;;33.85;21.68;;;;;;;6.25;100.00;100155.02;1657832;86;21082;-80
2022/03/31 01:52:44;;;;;;;31.60;20.27;;;;;;;6.24;100.00;100161.11;1663886;84;21563;-80
2022/03/31 01:55:11;;;;;;;28.30;20.85;;;;;;;6.25;100.00;100160.19;1691129;84;21196;-80
2022/03/31 01:57:39;;;;;;;36.33;21.55;;;;;;;6.28;100.00;100160.45;1691596;84;21018;-81
2022/03/31 02:00:08;;;;;;;31.42;21.15;;;;;;;6.25;100.00;100155.02;1691337;84;21141;-80
2022/03/31 02:02:43;;;;;;;35.30;22.15;;;;;;;6.26;100.00;100161.84;1691122;84;21029;-80
2022/03/31 02:05:11;;;;;;;33.58;22.37;;;;;;;6.26;100.00;100159.70;1691082;84;21054;-81
2022/03/31 02:07:39;;;;;;;35.30;23.55;;;;;;;6.23;100.00;100143.11;1691069;84;21940;-80
2022/03/31 02:10:11;;;;;;;41.98;24.23;;;;;;;6.21;100.00;100144.97;1691346;84;21019;-83
2022/03/31 02:12:41;;;;;;;39.20;23.80;;;;;;;6.20;100.00;100142.02;1691383;84;21060;-80
2022/03/31 02:15:10;;;;;;;32.25;21.75;;;;;;;6.19;100.00;100137.77;1691106;84;21157;-80
2022/03/31 02:17:38;;;;;;;37.83;23.73;;;;;;;6.18;100.00;100137.39;1691055;84;21132;-87
2022/03/31 02:20:09;;;;;;;48.98;26.45;;;;;;;6.17;100.00;100139.16;1663676;84;21093;-80
2022/03/31 02:22:37;;;;;;;41.80;24.32;;;;;;;6.13;100.00;100151.45;1690431;84;21098;-81
2022/03/31 02:25:11;;;;;;;42.65;24.27;;;;;;;6.10;100.00;100157.29;1691193;84;21077;-80
2022/03/31 02:27:39;;;;;;;40.25;23.45;;;;;;;6.08;100.00;100152.67;1691128;84;21617;-81
2022/03/31 02:30:08;;;;;;;41.73;24.10;;;;;;;6.06;100.00;100155.81;1691529;84;21098;-80
2022/03/31 02:32:37;;;;;;;43.00;24.25;;;;;;;6.06;100.00;100157.10;1691291;84;22602;-81
2022/03/31 02:35:06;;;;;;;39.92;24.23;;;;;;;6.05;100.00;100155.00;1690992;84;21050;-80
2022/03/31 02:37:34;;;;;;;37.67;23.75;;;;;;;6.07;100.00;100154.89;1691427;84;21046;-79
2022/03/31 02:40:06;;;;;;;42.08;22.45;;;;;;;6.07;100.00;100151.01;1691323;84;21089;-81
2022/03/31 02:42:36;;;;;;;;;;;;;;;6.10;100.00;100157.29;1692878;84;21118;-81
2022/03/31 02:45:06;;;;;;;36.17;20.55;;;;;;;6.15;100.00;100153.48;1691222;84;21322;-79
2022/03/31 02:47:35;;;;;;;37.23;20.40;;;;;;;6.22;100.00;100156.49;1683219;84;21571;-83
2022/03/31 02:50:06;;;;;;;32.80;20.02;;;;;;;6.26;100.00;100157.97;1663818;86;21578;-81
2022/03/31 02:55:31;;;;;;;36.90;22.42;;;;;;;6.36;100.00;100153.02;1686651;84;21032;-80
2022/03/31 02:58:00;;;;;;;33.65;20.82;;;;;;;6.40;100.00;100155.79;1693408;84;21580;-80
2022/03/31 03:00:32;;;;;;;35.68;20.68;;;;;;;6.43;100.00;100157.34;1693907;84;21587;-80
2022/03/31 03:03:03;;;;;;;33.40;20.50;;;;;;;6.45;100.00;100158.05;1667583;84;21126;-79
2022/03/31 03:05:31;;;;;;;34.80;21.03;;;;;;;6.49;100.00;100156.94;1665001;84;21185;-79
2022/03/31 03:08:01;;;;;;;31.45;19.12;;;;;;;6.52;100.00;100163.66;1691439;84;21111;-81
2022/03/31 03:10:29;;;;;;;31.48;19.45;;;;;;;6.54;100.00;100162.63;1691199;84;21211;-89
2022/03/31 03:12:59;;;;;;;30.82;19.70;;;;;;;6.56;100.00;100163.36;1678961;84;21064;-82
2022/03/31 03:15:27;;;;;;;35.23;20.55;;;;;;;6.59;100.00;100164.91;1663042;86;21079;-81
2022/03/31 03:17:55;;;;;;;32.25;20.37;;;;;;;6.60;100.00;100156.23;1663078;86;21123;-81
2022/03/31 03:20:24;;;;;;;37.17;20.95;;;;;;;6.61;100.00;100162.58;1652615;84;21009;-80
2022/03/31 03:22:53;;;;;;;30.43;20.95;;;;;;;6.65;100.00;100162.39;1691429;83;21852;-81
2022/03/31 03:25:23;;;;;;;29.37;19.40;;;;;;;6.68;100.00;100159.62;1691587;84;21053;-82
2022/03/31 03:27:51;;;;;;;36.45;19.27;;;;;;;6.72;100.00;100163.20;1691605;84;21512;-80
2022/03/31 03:30:20;;;;;;;32.60;20.25;;;;;;;6.75;100.00;100162.97;1691209;84;21136;-80
2022/03/31 03:32:49;;;;;;;33.10;19.67;;;;;;;6.80;100.00;100154.91;1691710;84;22309;-80
2022/03/31 03:35:18;;;;;;;25.45;19.32;;;;;;;6.86;100.00;100157.08;1691515;84;21124;-81
2022/03/31 03:37:46;;;;;;;34.58;19.77;;;;;;;6.91;100.00;100158.91;1691114;84;21901;-80
2022/03/31 03:40:15;;;;;;;28.73;19.10;;;;;;;6.97;100.00;100156.36;1691512;84;21080;-89
2022/03/31 03:42:44;;;;;;;33.80;20.02;;;;;;;7.02;100.00;100158.19;1691451;84;21462;-82
2022/03/31 03:45:11;;;;;;;35.92;20.72;;;;;;;7.10;100.00;100155.06;1691034;84;21517;-80
2022/03/31 03:47:39;;;;;;;28.32;20.15;;;;;;;7.14;100.00;100152.64;1664078;84;21162;-79
2022/03/31 03:50:07;;;;;;;36.30;19.32;;;;;;;7.19;100.00;100154.44;1691162;84;21501;-82
2022/03/31 03:52:36;;;;;;;38.88;21.95;;;;;;;7.25;100.00;100157.09;1664314;84;21059;-80
2022/03/31 03:55:05;;;;;;;40.00;21.10;;;;;;;7.30;100.00;100156.77;1691690;84;21059;-83
2022/03/31 03:57:32;;;;;;;39.63;20.55;;;;;;;7.35;100.00;100144.32;1691270;84;21565;-81
2022/03/31 03:59:59;;;;;;;33.90;19.77;;;;;;;7.39;100.00;100144.48;1691308;84;21122;-80
2022/03/31 04:02:27;;;;;;;32.65;21.27;;;;;;;7.41;100.00;100141.33;1686195;84;21602;-79
2022/03/31 04:04:54;;;;;;;43.80;23.20;;;;;;;7.46;100.00;100148.75;1691581;84;21055;-80
2022/03/31 04:07:22;;;;;;;31.33;19.77;;;;;;;7.48;100.00;100150.78;1691406;84;21083;-80
2022/03/31 04:09:49;;;;;;;32.90;21.45;;;;;;;7.51;100.00;100157.05;1691510;84;21102;-81
2022/03/31 04:12:17;;;;;;;37.33;21.68;;;;;;;7.52;100.00;100149.17;1691531;84;21125;-81
2022/03/31 04:14:45;;;;;;;30.15;21.45;;;;;;;7.55;100.00;100141.64;1691774;84;21059;-81
2022/03/31 04:17:13;;;;;;;35.23;20.65;;;;;;;7.56;100.00;100153.22;1691445;84;21076;-86
2022/03/31 04:19:42;;;;;;;35.85;21.60;;;;;;;7.59;100.00;100165.13;1691621;84;21044;-81
2022/03/31 04:22:10;;;;;;;36.23;22.90;;;;;;;7.61;100.00;100146.87;1691543;84;21605;-82
2022/03/31 04:24:39;;;;;;;34.80;22.22;;;;;;;7.62;100.00;100151.94;1691571;84;21140;-81
2022/03/31 04:27:08;;;;;;;38.20;22.10;;;;;;;7.63;100.00;100155.37;1691310;84;21075;-88
2022/03/31 04:29:36;;;;;;;35.52;22.15;;;;;;;7.64;100.00;100151.36;1691630;84;21031;-81
2022/03/31 04:32:04;;;;;;;39.95;22.82;;;;;;;7.65;100.00;100145.25;1691872;84;21079;-81
2022/03/31 04:34:39;;;;;;;33.80;21.73;;;;;;;7.66;100.00;100133.11;1691629;84;21110;-83
2022/03/31 04:37:03;;;;;;;32.10;22.05;;;;;;;7.68;100.00;100137.27;1690816;84;21173;-80
2022/03/31 04:39:31;;;;;;;41.05;24.25;;;;;;;7.71;100.00;100141.41;1691559;84;21614;-81
2022/03/31 04:41:58;;;;;;;33.78;21.45;;;;;;;7.74;100.00;100145.05;1691244;84;21157;-83
2022/03/31 04:44:26;;;;;;;38.58;21.68;;;;;;;7.77;100.00;100142.27;1691202;84;21229;-83
2022/03/31 04:46:53;;;;;;;33.23;21.57;;;;;;;7.80;100.00;100144.65;1690889;84;21040;-80
2022/03/31 04:49:21;;;;;;;36.23;22.67;;;;;;;7.85;100.00;100144.32;1689921;83;22008;-82
2022/03/31 04:51:48;;;;;;;35.00;21.45;;;;;;;7.89;100.00;100143.16;1691032;84;21110;-81
2022/03/31 04:54:15;;;;;;;31.65;20.45;;;;;;;7.95;100.00;100145.30;1691173;84;21532;-81
2022/03/31 04:56:43;;;;;;;29.52;20.72;;;;;;;8.02;100.00;100141.80;1681856;84;22003;-82
2022/03/31 04:59:11;;;;;;;35.23;21.20;;;;;;;8.04;100.00;100129.08;1658073;86;21097;-81
2022/03/31 05:01:40;;;;;;;37.33;21.62;;;;;;;8.08;100.00;100128.39;1658008;86;21805;-81
2022/03/31 05:04:10;;;;;;;31.07;21.93;;;;;;;8.11;100.00;100124.29;1671826;83;21087;-81
2022/03/31 05:06:37;;;;;;;40.63;21.82;;;;;;;8.18;100.00;100135.02;1660276;85;21082;-80
2022/03/31 05:09:06;;;;;;;32.93;20.72;;;;;;;8.24;100.00;100129.41;1691639;84;21070;-81
2022/03/31 05:11:38;;;;;;;32.35;20.20;;;;;;;8.29;100.00;100124.70;1689289;83;21046;-90
2022/03/31 05:14:06;;;;;;;30.10;20.35;;;;;;;8.32;100.00;100130.13;1693230;84;21068;-82
2022/03/31 05:16:35;;;;;;;31.40;20.23;;;;;;;8.37;100.00;100139.72;1688195;84;21068;-85
2022/03/31 05:19:03;;;;;;;33.58;20.40;;;;;;;8.42;100.00;100136.77;1687649;84;21071;-81
2022/03/31 05:21:36;;;;;;;54.77;31.00;;;;;;;8.47;100.00;100145.90;1691165;84;21027;-85
2022/03/31 05:24:04;;;;;;;51.10;26.35;;;;;;;8.75;100.00;100141.27;1686944;84;21157;-80
2022/03/31 05:26:31;;;;;;;47.13;25.62;;;;;;;9.07;100.00;100153.58;1691552;84;21329;-80
2022/03/31 05:28:58;;;;;;;37.13;22.30;;;;;;;9.31;100.00;100166.45;1691401;84;20985;-79
2022/03/31 05:31:28;;;;;;;101.42;25.25;;;;;;;9.62;100.00;100162.77;1691232;84;21055;-79
2022/03/31 05:33:55;;;;;;;89.15;23.73;;;;;;;9.74;100.00;100145.37;1691597;84;21019;-80
2022/03/31 05:36:22;;;;;;;44.38;21.45;;;;;;;9.87;100.00;100153.52;1691701;83;21094;-79
2022/03/31 05:38:49;;;;;;;38.42;21.57;;;;;;;9.99;100.00;100153.82;1688617;84;21118;-79
2022/03/31 05:41:17;;;;;;;55.75;23.27;;;;;;;9.96;100.00;100157.98;1691258;84;21012;-81
2022/03/31 05:43:45;;;;;;;39.53;21.62;;;;;;;9.97;100.00;100157.04;1691294;83;21015;-79
2022/03/31 05:46:13;;;;;;;64.85;22.62;;;;;;;10.01;100.00;100159.73;1663292;84;21150;-81
2022/03/31 05:48:40;;;;;;;81.32;24.18;;;;;;;10.10;100.00;100157.70;1691824;84;21612;-81
2022/03/31 05:51:07;;;;;;;52.27;20.95;;;;;;;10.23;100.00;100165.80;1691709;84;21169;-80
2022/03/31 05:53:34;;;;;;;40.43;20.62;;;;;;;10.33;100.00;100163.30;1690187;84;21064;-84
2022/03/31 05:56:02;;;;;;;97.88;60.05;;;;;;;10.36;100.00;100157.38;1693102;84;21055;-87
2022/03/31 05:58:29;;;;;;;38.83;25.05;;;;;;;10.43;100.00;100155.59;1663730;84;21039;-86
2022/03/31 06:00:57;;;;;;;43.98;20.00;;;;;;;10.52;100.00;100152.23;1681054;83;21148;-86
2022/03/31 06:03:24;;;;;;;45.00;19.27;;;;;;;10.54;100.00;100164.62;1693702;83;21148;-79
2022/03/31 06:05:52;;;;;;;37.90;19.75;;;;;;;10.55;100.00;100168.89;1699373;84;21587;-79
2022/03/31 06:08:19;;;;;;;41.48;19.42;;;;;;;10.62;100.00;100178.33;1691835;84;21015;-80
2022/03/31 06:10:47;;;;;;;68.00;21.25;;;;;;;10.71;100.00;100173.67;1694698;84;21020;-79
2022/03/31 06:13:14;;;;;;;33.18;18.37;;;;;;;10.83;100.00;100168.73;1691434;84;21106;-79
2022/03/31 06:15:42;;;;;;;31.77;17.90;;;;;;;10.95;100.00;100168.19;1657744;86;21186;-79
2022/03/31 06:18:10;;;;;;;29.63;17.02;;;;;;;10.96;100.00;100162.52;1691322;84;22231;-86
2022/03/31 06:20:37;;;;;;;33.35;17.17;;;;;;;10.93;100.00;100145.37;1679080;84;21473;-79
2022/03/31 06:23:05;;;;;;;32.33;16.82;;;;;;;10.98;100.00;100159.28;1690642;83;21122;-81
2022/03/31 06:25:33;;;;;;;27.70;16.70;;;;;;;11.00;100.00;100156.08;1689719;83;21141;-79
2022/03/31 06:28:02;;;;;;;26.37;16.20;;;;;;;11.05;100.00;100161.75;1683394;84;21125;-79
2022/03/31 06:30:29;;;;;;;26.25;16.12;;;;;;;11.09;100.00;100159.70;1679235;84;21007;-80
2022/03/31 06:32:58;;;;;;;27.85;15.93;;;;;;;11.08;100.00;100153.65;1691399;84;21066;-79
2022/03/31 06:35:25;;;;;;;28.62;16.70;;;;;;;11.10;100.00;100152.20;1691197;84;21073;-79
2022/03/31 06:37:54;;;;;;;29.27;15.78;;;;;;;11.08;100.00;100143.23;1691380;84;21058;-78
2022/03/31 06:40:22;;;;;;;30.88;15.53;;;;;;;11.08;100.00;100138.51;1691496;84;21153;-78
2022/03/31 06:42:50;;;;;;;32.10;15.53;;;;;;;11.08;100.00;100142.41;1691696;84;21599;-78
2022/03/31 06:45:19;;;;;;;35.00;14.83;;;;;;;11.14;100.00;100139.28;1691566;84;21161;-79
2022/03/31 06:47:46;;;;;;;37.67;15.28;;;;;;;11.23;100.00;100135.89;1691332;84;21062;-80
2022/03/31 06:50:13;;;;;;;29.00;14.73;;;;;;;11.33;100.00;100128.10;1691328;84;21053;-79
2022/03/31 06:52:41;;;;;;;25.40;14.40;;;;;;;11.41;100.00;100130.06;1691529;83;21267;-79
2022/03/31 06:55:09;;;;;;;24.98;13.83;;;;;;;11.50;100.00;100122.72;1691537;83;21011;-78
2022/03/31 06:57:37;;;;;;;25.30;13.83;;;;;;;11.59;100.00;100115.89;1691716;84;22081;-77
2022/03/31 07:00:09;;;;;;;28.12;13.85;;;;;;;11.62;100.00;100111.23;1691593;83;21125;-85
2022/03/31 07:02:38;;;;;;;21.33;14.38;;;;;;;11.64;100.00;100126.27;1691487;83;21003;-82
2022/03/31 07:05:06;;;;;;;27.60;12.93;;;;;;;11.68;100.00;100117.20;1691635;84;21846;-79
2022/03/31 07:07:34;;;;;;;24.23;13.40;;;;;;;11.74;100.00;100116.31;1691121;83;21023;-78
2022/03/31 07:10:01;;;;;;;26.20;13.15;;;;;;;11.80;100.00;100114.50;1691483;84;21022;-78
2022/03/31 07:12:30;;;;;;;26.12;12.98;;;;;;;11.84;100.00;100120.61;1691373;83;21102;-82
2022/03/31 07:15:00;;;;;;;26.95;13.13;;;;;;;11.85;100.00;100103.16;1691370;83;21070;-80
2022/03/31 07:17:27;;;;;;;25.52;12.43;;;;;;;11.84;100.00;100108.03;1691629;84;21216;-79
2022/03/31 07:19:54;;;;;;;25.20;12.88;;;;;;;11.84;100.00;100105.42;1691620;83;21015;-79
2022/03/31 07:22:22;;;;;;;24.75;13.28;;;;;;;11.84;100.00;100104.12;1691306;83;21611;-79
2022/03/31 07:24:50;;;;;;;22.07;12.33;;;;;;;11.86;100.00;100103.51;1691335;84;21042;-79
2022/03/31 07:27:17;;;;;;;23.22;13.38;;;;;;;11.89;100.00;100094.12;1691371;84;21027;-80
2022/03/31 07:29:46;;;;;;;24.15;12.53;;;;;;;11.95;100.00;100101.85;1691407;84;21102;-81
2022/03/31 07:32:13;;;;;;;19.10;11.83;;;;;;;12.01;100.00;100110.95;1691249;84;21583;-79
2022/03/31 07:34:41;;;;;;;24.43;12.07;;;;;;;12.04;100.00;100107.59;1691637;84;21074;-81
2022/03/31 07:37:09;;;;;;;18.02;11.85;;;;;;;12.09;100.00;100096.28;1673849;83;21023;-81
2022/03/31 07:39:41;;;;;;;15.30;11.35;;;;;;;12.19;100.00;100104.09;1692066;84;21177;-80
2022/03/31 07:42:06;;;;;;;22.13;12.90;;;;;;;12.31;100.00;100098.25;1688914;83;21601;-87
2022/03/31 07:44:34;;;;;;;18.77;11.63;;;;;;;12.41;100.00;100100.38;1691248;83;21054;-84
2022/03/31 07:47:01;;;;;;;21.17;11.55;;;;;;;12.51;100.00;100096.42;1691412;83;21515;-79
2022/03/31 07:49:30;;;;;;;20.82;11.60;;;;;;;12.61;100.00;100096.40;1691225;84;21115;-78
2022/03/31 07:51:57;;;;;;;22.27;11.68;;;;;;;12.70;100.00;100105.19;1691427;84;21030;-82
2022/03/31 07:54:25;;;;;;;20.05;11.28;;;;;;;12.80;100.00;100104.66;1691859;84;21791;-80
2022/03/31 07:56:53;;;;;;;15.70;11.05;;;;;;;12.94;100.00;100106.81;1691339;83;21071;-81
2022/03/31 07:59:25;;;;;;;19.85;11.18;;;;;;;13.08;100.00;100099.48;1691502;84;21524;-80
2022/03/31 08:01:52;;;;;;;22.15;11.65;;;;;;;13.22;100.00;100106.03;1690945;83;20998;-81
2022/03/31 08:04:20;;;;;;;21.62;10.75;;;;;;;13.33;100.00;100101.90;1691412;83;21529;-80
2022/03/31 08:06:47;;;;;;;21.73;11.12;;;;;;;13.46;100.00;100106.81;1691536;84;21118;-80
2022/03/31 08:09:20;;;;;;;18.87;10.80;;;;;;;13.53;100.00;100096.10;1691215;84;21637;-79
2022/03/31 08:11:45;;;;;;;17.35;10.65;;;;;;;13.58;100.00;100100.08;1688949;84;21070;-80
2022/03/31 08:14:16;;;;;;;19.87;11.03;;;;;;;13.63;100.00;100104.38;1691836;83;21516;-79
2022/03/31 08:16:41;;;;;;;18.40;10.50;;;;;;;13.68;100.00;100093.81;1688880;84;21034;-79
2022/03/31 08:19:08;;;;;;;22.17;10.95;;;;;;;13.69;100.00;100096.77;1691333;84;21670;-79
2022/03/31 08:21:36;;;;;;;23.02;10.90;;;;;;;13.67;100.00;100090.02;1690769;83;21667;-87
2022/03/31 08:24:04;;;;;;;17.57;11.15;;;;;;;13.64;100.00;100097.68;1673198;84;21085;-79
2022/03/31 08:26:32;;;;;;;21.15;12.63;;;;;;;13.64;100.00;100096.38;1696450;84;21078;-86
2022/03/31 08:29:01;;;;;;;17.75;10.80;;;;;;;13.66;100.00;100094.44;1705832;84;21038;-78
2022/03/31 08:31:39;;;;;;;21.25;10.75;;;;;;;13.67;100.00;100098.70;1690665;84;21133;-78
2022/03/31 08:34:10;;;;;;;23.38;10.70;;;;;;;13.69;100.00;100094.16;1679624;83;21671;-79
2022/03/31 08:36:43;;;;;;;21.70;10.83;;;;;;;13.73;100.00;100095.48;1690790;83;21065;-81
2022/03/31 08:39:11;;;;;;;20.50;10.35;;;;;;;13.79;100.00;100095.85;1701130;84;21622;-81
2022/03/31 08:41:44;;;;;;;23.45;10.25;;;;;;;13.83;100.00;100088.05;1684568;84;21028;-79
2022/03/31 08:44:15;;;;;;;20.02;10.48;;;;;;;13.88;100.00;100084.49;1685527;83;21180;-80
2022/03/31 08:46:49;;;;;;;21.20;10.15;;;;;;;14.00;100.00;100077.23;1682189;83;21058;-81
2022/03/31 08:49:17;;;;;;;17.48;11.00;;;;;;;14.23;100.00;100068.90;1691711;84;21069;-82
2022/03/31 08:51:46;;;;;;;22.62;11.03;;;;;;;14.53;100.00;100058.97;1702096;84;21011;-86
2022/03/31 08:54:13;;;;;;;18.62;10.35;;;;;;;14.77;100.00;100064.84;1706111;84;21090;-82
2022/03/31 08:56:41;;;;;;;20.23;10.18;;;;;;;15.07;100.00;100056.95;1701534;84;21833;-82
2022/03/31 08:59:10;;;;;;;20.25;9.05;;;;;;;15.41;100.00;100048.21;1689057;84;21159;-81
2022/03/31 09:01:39;;;;;;;16.12;9.95;;;;;;;15.71;100.00;100045.95;1678321;84;21063;-80
2022/03/31 09:04:22;;;;;;;15.68;9.15;;;;;;;15.92;96.89;100052.55;1692910;84;21059;-80
2022/03/31 09:07:08;;;;;;;16.70;9.73;;;;;;;16.04;96.03;100049.93;1691128;84;21087;-80
2022/03/31 09:09:46;;;;;;;19.87;9.38;;;;;;;16.09;89.17;100046.81;1694080;84;21342;-84
2022/03/31 09:12:14;;;;;;;19.10;9.00;;;;;;;16.08;89.34;100040.72;1691239;84;21059;-83
2022/03/31 09:14:41;;;;;;;16.85;8.98;;;;;;;16.07;87.45;100050.89;1687891;84;21060;-81
2022/03/31 09:17:14;;;;;;;18.73;9.85;;;;;;;16.07;89.35;100039.08;1676834;83;21062;-80
2022/03/31 09:19:43;;;;;;;19.27;9.35;;;;;;;16.13;87.80;100039.42;1691472;84;21078;-82
2022/03/31 09:22:13;;;;;;;17.52;9.15;;;;;;;16.25;91.39;100028.88;1690913;84;21747;-88
2022/03/31 09:24:44;;;;;;;13.70;8.83;;;;;;;16.49;87.88;100025.88;1690845;83;21056;-81
2022/03/31 09:27:26;;;;;;;16.80;9.33;;;;;;;16.71;84.90;100014.63;1693427;83;21103;-81
2022/03/31 09:30:05;;;;;;;16.95;9.10;;;;;;;16.99;86.14;100006.33;1679960;83;21126;-85
2022/03/31 09:32:33;;;;;;;18.73;8.50;;;;;;;17.28;84.63;100004.84;1691321;84;21044;-80
2022/03/31 09:35:07;;;;;;;15.55;8.18;;;;;;;17.59;81.06;99997.90;1690006;84;21186;-81
2022/03/31 09:37:36;;;;;;;19.80;8.43;;;;;;;17.86;75.45;99987.30;1691326;84;21110;-88
2022/03/31 09:40:06;;;;;;;13.55;8.25;;;;;;;18.14;72.56;99980.17;1696411;84;21617;-83
2022/03/31 09:42:34;;;;;;;21.65;9.28;;;;;;;18.28;67.33;99968.81;1679217;84;21136;-81
2022/03/31 09:45:03;;;;;;;21.27;8.50;;;;;;;18.37;67.16;99962.94;1663496;85;21078;-86
2022/03/31 09:47:30;;;;;;;14.63;7.67;;;;;;;18.39;63.46;99960.11;1663456;85;21293;-86
2022/03/31 09:49:58;;;;;;;16.48;7.92;;;;;;;18.40;65.00;99960.43;1679978;84;21064;-80
2022/03/31 09:52:25;;;;;;;23.50;8.43;;;;;;;18.42;65.76;99957.13;1690886;84;21044;-83
2022/03/31 09:54:53;;;;;;;10.68;7.42;;;;;;;18.47;64.61;99956.06;1687292;84;21569;-87
2022/03/31 09:57:22;;;;;;;12.90;7.75;;;;;;;18.53;63.11;99956.67;1687207;84;21094;-84
2022/03/31 09:59:54;;;;;;;13.40;7.37;;;;;;;18.62;64.79;99954.73;1687266;84;21156;-86
2022/03/31 10:02:21;;;;;;;19.12;8.95;;;;;;;18.72;64.09;99955.75;1687163;85;21064;-86
2022/03/31 10:04:50;;;;;;;18.15;8.25;;;;;;;18.78;63.48;99958.16;1687709;84;21135;-85
2022/03/31 10:07:18;;;;;;;15.83;8.10;;;;;;;18.80;60.70;99953.52;1687388;85;21035;-91
2022/03/31 10:09:46;;;;;;;16.12;9.00;;;;;;;18.78;60.49;99955.52;1687447;85;21071;-80
2022/03/31 10:12:34;;;;;;;29.37;13.55;;;;;;;18.85;62.06;99952.45;1686860;84;21170;-87
2022/03/31 10:15:17;;;;;;;27.05;7.67;;;;;;;19.04;59.81;99933.91;1613090;87;21081;-86
2022/03/31 10:17:48;;;;;;;42.25;8.38;;;;;;;19.33;58.63;99944.05;1681624;85;21791;-82
2022/03/31 10:20:17;;;;;;;22.58;7.72;;;;;;;19.55;56.30;99941.70;1684708;85;21636;-83
2022/03/31 10:25:49;;;;;;;25.77;7.40;;;;;;;19.58;52.70;99949.73;1693251;84;21311;-79
2022/03/31 10:28:21;;;;;;;23.45;6.70;;;;;;;19.42;52.12;99948.20;1693606;84;20996;-79
2022/03/31 10:31:01;;;;;;;32.58;9.78;;;;;;;19.27;51.42;99949.58;1693069;84;21127;-81
2022/03/31 10:33:42;;;;;;;26.77;8.75;;;;;;;19.15;51.71;99951.90;1680069;84;21085;-81
2022/03/31 10:36:14;;;;;;;22.77;7.70;;;;;;;19.07;50.46;99940.95;1684825;84;21090;-79
2022/03/31 10:38:58;;;;;;;34.92;10.30;;;;;;;19.03;50.37;99939.70;1641018;86;21263;-78
2022/03/31 10:41:32;;;;;;;40.98;9.40;;;;;;;19.09;51.08;99942.10;1658801;86;21097;-80
2022/03/31 10:44:16;;;;;;;31.55;8.68;;;;;;;19.22;50.26;99938.78;1690479;84;21051;-84
2022/03/31 10:46:48;;;;;;;22.42;6.60;;;;;;;19.40;50.28;99935.69;1685303;84;21031;-80
2022/03/31 10:49:20;;;;;;;20.72;7.53;;;;;;;19.55;49.36;99939.06;1680591;84;21133;-81
2022/03/31 10:51:49;;;;;;;28.40;6.87;;;;;;;19.65;49.43;99930.80;1633168;86;21156;-81
2022/03/31 10:54:28;;;;;;;14.40;5.97;;;;;;;19.76;49.61;99933.41;1657753;86;21103;-83
2022/03/31 10:57:15;;;;;;;19.82;6.30;;;;;;;19.86;46.21;99933.13;1677031;84;21623;-80
2022/03/31 10:59:48;;;;;;;18.23;6.20;;;;;;;20.00;46.53;99920.80;1686106;84;21578;-80
2022/03/31 11:02:19;;;;;;;18.87;6.45;;;;;;;20.07;44.92;99934.85;1669273;84;21153;-83
2022/03/31 11:05:00;;;;;;;9.73;5.67;;;;;;;20.02;44.74;99925.38;1691161;84;21717;-83
2022/03/31 11:07:28;;;;;;;16.00;5.85;;;;;;;19.90;45.24;99926.95;1670680;84;21556;-81
2022/03/31 11:10:08;;;;;;;19.50;6.33;;;;;;;19.84;45.27;99913.48;1686471;84;21057;-86
2022/03/31 11:12:39;;;;;;;23.30;14.73;;;;;;;19.99;45.70;99916.55;1686137;83;21046;-87
2022/03/31 11:15:18;;;;;;;20.60;6.35;;;;;;;20.22;44.93;99918.08;1689648;84;20996;-84
2022/03/31 11:17:48;;;;;;;27.22;7.17;;;;;;;20.39;44.59;99900.85;1687848;84;21276;-82
2022/03/31 11:20:22;;;;;;;21.65;6.92;;;;;;;20.40;41.94;99902.48;1662676;84;21549;-85
2022/03/31 11:22:54;;;;;;;22.37;6.12;;;;;;;20.35;42.80;99905.44;1626605;86;21100;-82
2022/03/31 11:25:24;;;;;;;22.55;6.75;;;;;;;20.36;42.82;99900.44;1651372;85;21078;-83
2022/03/31 11:27:53;;;;;;;16.00;6.08;;;;;;;20.36;42.14;99892.02;1687199;83;21602;-85
2022/03/31 11:30:22;;;;;;;28.87;7.00;;;;;;;20.37;42.28;99896.30;1686140;84;21111;-92
2022/03/31 11:32:56;;;;;;;19.35;6.00;;;;;;;20.43;41.70;99878.83;1691087;84;21109;-87
2022/03/31 11:35:28;;;;;;;14.93;5.78;;;;;;;20.55;40.50;99885.68;1656901;86;21066;-84